This is the latest recevied weather packets stored in our database for station/object OE-11213. If no packets are shown the sender has not sent any weather packets the latest 10 day(s).
| Time | Temp. | Humidity | Pressure | Rain* | Wind** | Luminosity | Snow |
|---|---|---|---|---|---|---|---|
| 1788161731 | 21.11° C | 65% | 1016 hPa | 0 mm | - | 428 W/m² | - |
| 1788161131 | 21.11° C | 67% | 1015.9 hPa | 0 mm | - | 406 W/m² | - |
| 1788160304 | 20.56° C | 68% | 1016.1 hPa | 0 mm | - | 384 W/m² | - |
| 1788159931 | 20.56° C | 70% | 1016.1 hPa | 0 mm | - | 355 W/m² | - |
| 1788159331 | 20.56° C | 69% | 1015.9 hPa | 0 mm | - | 319 W/m² | - |
| 1788158504 | 20° C | 72% | 1015.9 hPa | 0 mm | - | 290 W/m² | - |
| 1788158131 | 18.89° C | 74% | 1016.1 hPa | 0 mm | - | 261 W/m² | - |
| 1788157531 | 18.89° C | 74% | 1016.3 hPa | 0 mm | - | 232 W/m² | - |
| 1788156703 | 17.78° C | 79% | 1016.3 hPa | 0 mm | - | 203 W/m² | - |
| 1788156331 | 17.78° C | 80% | 1016.2 hPa | 0 mm | - | 174 W/m² | - |
| 1788155731 | 17.22° C | 82% | 1016.3 hPa | 0 mm | - | 145 W/m² | - |
| 1788154904 | 17.22° C | 82% | 1016.3 hPa | 0 mm | - | 123 W/m² | - |
| 1788154531 | 16.11° C | 85% | 1016.7 hPa | 0 mm | - | 94 W/m² | - |
| 1788153931 | 15.56° C | 87% | 1016.8 hPa | 0 mm | - | 65 W/m² | - |
| 1788153104 | 15.56° C | 89% | 1016.8 hPa | 0 mm | - | 44 W/m² | - |
| 1788152731 | 16.11° C | 86% | 1016.6 hPa | 0 mm | - | 22 W/m² | - |
| 1788152131 | 15.56° C | 89% | 1016.7 hPa | 0 mm | - | 15 W/m² | - |
| 1788151303 | 15° C | 91% | 1016.6 hPa | 0 mm | - | 7 W/m² | - |
| 1788150931 | 15.56° C | 91% | 1016.5 hPa | 0 mm | - | 0 W/m² | - |
| 1788150331 | 15.56° C | 89% | 1016.4 hPa | 0 mm | - | 0 W/m² | - |
| 1788149742 | 16.11° C | 88% | 1016.4 hPa | 0 mm | - | 0 W/m² | - |
| 1788149131 | 15.56° C | 88% | 1016.4 hPa | 0 mm | - | 0 W/m² | - |
| 1788148531 | 15.56° C | 90% | 1016.4 hPa | 0 mm | - | 0 W/m² | - |
| 1788147931 | 16.11° C | 89% | 1016.6 hPa | 0 mm | - | 0 W/m² | - |
| 1788147331 | 16.11° C | 89% | 1016.6 hPa | 0 mm | - | 0 W/m² | - |
* Rain latest hour (hover to see other rain measurements)
** Current wind speed in m/s (hover to see current wind gust speed)